sensor_id;sensor_type;location;lat;lon;timestamp;pressure;altitude;pressure_sealevel;temperature;humidity
74403;BME280;62837;51.082;13.744;2024-02-28T00:02:05;100543.17;;;7.41;88.14
74403;BME280;62837;51.082;13.744;2024-02-28T00:04:36;100541.98;;;7.58;87.54
74403;BME280;62837;51.082;13.744;2024-02-28T00:07:07;100539.49;;;7.66;85.53
74403;BME280;62837;51.082;13.744;2024-02-28T00:09:38;100536.16;;;7.63;85.16
74403;BME280;62837;51.082;13.744;2024-02-28T00:12:09;100539.46;;;7.68;85.19
74403;BME280;62837;51.082;13.744;2024-02-28T00:14:40;100539.48;;;7.64;85.12
74403;BME280;62837;51.082;13.744;2024-02-28T00:17:11;100543.81;;;7.69;84.99
74403;BME280;62837;51.082;13.744;2024-02-28T00:19:42;100545.38;;;7.74;85.24
74403;BME280;62837;51.082;13.744;2024-02-28T00:22:13;100544.30;;;7.70;83.31
74403;BME280;62837;51.082;13.744;2024-02-28T00:24:44;100547.86;;;7.62;84.52
74403;BME280;62837;51.082;13.744;2024-02-28T00:27:14;100550.65;;;7.68;85.42
74403;BME280;62837;51.082;13.744;2024-02-28T00:29:45;100552.79;;;7.71;83.30
74403;BME280;62837;51.082;13.744;2024-02-28T00:32:16;100552.22;;;7.55;82.94
74403;BME280;62837;51.082;13.744;2024-02-28T00:34:47;100554.39;;;7.48;84.22
74403;BME280;62837;51.082;13.744;2024-02-28T00:37:18;100560.67;;;7.47;83.78
74403;BME280;62837;51.082;13.744;2024-02-28T00:39:49;100563.88;;;7.44;83.38
74403;BME280;62837;51.082;13.744;2024-02-28T00:42:20;100562.91;;;7.39;84.57
74403;BME280;62837;51.082;13.744;2024-02-28T00:44:51;100562.80;;;7.43;83.96
74403;BME280;62837;51.082;13.744;2024-02-28T00:47:21;100563.33;;;7.50;85.09
74403;BME280;62837;51.082;13.744;2024-02-28T00:49:52;100562.84;;;7.55;83.37
74403;BME280;62837;51.082;13.744;2024-02-28T00:52:23;100560.39;;;7.57;84.42
74403;BME280;62837;51.082;13.744;2024-02-28T00:54:55;100560.16;;;7.68;84.76
74403;BME280;62837;51.082;13.744;2024-02-28T00:57:25;100563.20;;;7.80;84.74
74403;BME280;62837;51.082;13.744;2024-02-28T00:59:56;100563.83;;;7.95;84.30
74403;BME280;62837;51.082;13.744;2024-02-28T01:02:27;100570.08;;;8.04;83.73
74403;BME280;62837;51.082;13.744;2024-02-28T01:04:57;100570.56;;;8.06;83.03
74403;BME280;62837;51.082;13.744;2024-02-28T01:07:28;100572.42;;;8.04;82.72
74403;BME280;62837;51.082;13.744;2024-02-28T01:09:59;100573.04;;;7.96;81.61
74403;BME280;62837;51.082;13.744;2024-02-28T01:12:30;100574.36;;;7.83;82.69
74403;BME280;62837;51.082;13.744;2024-02-28T01:15:00;100576.35;;;7.74;81.76
74403;BME280;62837;51.082;13.744;2024-02-28T01:17:31;100574.83;;;7.66;82.63
74403;BME280;62837;51.082;13.744;2024-02-28T01:20:02;100575.63;;;7.63;82.64
74403;BME280;62837;51.082;13.744;2024-02-28T01:22:33;100573.64;;;7.60;82.51
74403;BME280;62837;51.082;13.744;2024-02-28T01:25:05;100572.65;;;7.54;82.63
74403;BME280;62837;51.082;13.744;2024-02-28T01:27:36;100569.95;;;7.52;82.39
74403;BME280;62837;51.082;13.744;2024-02-28T01:30:08;100563.48;;;7.48;83.17
74403;BME280;62837;51.082;13.744;2024-02-28T01:32:39;100554.31;;;7.55;83.89
74403;BME280;62837;51.082;13.744;2024-02-28T01:35:11;100558.10;;;7.69;83.85
74403;BME280;62837;51.082;13.744;2024-02-28T01:37:42;100549.14;;;7.83;83.39
74403;BME280;62837;51.082;13.744;2024-02-28T01:40:14;100541.69;;;7.94;83.34
74403;BME280;62837;51.082;13.744;2024-02-28T01:42:45;100539.99;;;8.06;83.03
74403;BME280;62837;51.082;13.744;2024-02-28T01:45:16;100537.05;;;8.14;82.64
74403;BME280;62837;51.082;13.744;2024-02-28T01:47:47;100535.05;;;8.20;82.06
74403;BME280;62837;51.082;13.744;2024-02-28T01:50:18;100538.91;;;8.28;81.92
74403;BME280;62837;51.082;13.744;2024-02-28T01:52:48;100540.16;;;8.34;81.61
74403;BME280;62837;51.082;13.744;2024-02-28T01:55:19;100542.27;;;8.37;81.73
74403;BME280;62837;51.082;13.744;2024-02-28T01:57:52;100540.77;;;8.40;81.11
74403;BME280;62837;51.082;13.744;2024-02-28T02:00:23;100540.44;;;8.42;80.78
74403;BME280;62837;51.082;13.744;2024-02-28T02:02:55;100538.98;;;8.45;80.81
74403;BME280;62837;51.082;13.744;2024-02-28T02:05:26;100535.23;;;8.42;80.10
74403;BME280;62837;51.082;13.744;2024-02-28T02:07:58;100532.88;;;8.37;80.33
74403;BME280;62837;51.082;13.744;2024-02-28T02:10:29;100533.17;;;8.38;80.49
74403;BME280;62837;51.082;13.744;2024-02-28T02:13:06;100536.09;;;8.40;80.60
74403;BME280;62837;51.082;13.744;2024-02-28T02:15:37;100534.05;;;8.45;80.58
74403;BME280;62837;51.082;13.744;2024-02-28T02:18:08;100535.94;;;8.46;79.95
74403;BME280;62837;51.082;13.744;2024-02-28T02:20:42;100533.02;;;8.48;80.20
74403;BME280;62837;51.082;13.744;2024-02-28T02:23:14;100530.63;;;8.52;80.23
74403;BME280;62837;51.082;13.744;2024-02-28T02:25:48;100533.34;;;8.55;80.05
74403;BME280;62837;51.082;13.744;2024-02-28T02:28:19;100535.73;;;8.60;79.96
74403;BME280;62837;51.082;13.744;2024-02-28T02:30:49;100532.74;;;8.64;80.22
74403;BME280;62837;51.082;13.744;2024-02-28T02:33:20;100535.41;;;8.69;79.89
74403;BME280;62837;51.082;13.744;2024-02-28T02:35:51;100539.98;;;8.71;79.64
74403;BME280;62837;51.082;13.744;2024-02-28T02:38:22;100536.09;;;8.71;79.45
74403;BME280;62837;51.082;13.744;2024-02-28T02:40:52;100537.37;;;8.74;79.66
74403;BME280;62837;51.082;13.744;2024-02-28T02:43:23;100538.98;;;8.69;78.56
74403;BME280;62837;51.082;13.744;2024-02-28T02:45:54;100535.06;;;8.62;79.18
74403;BME280;62837;51.082;13.744;2024-02-28T02:48:25;100539.19;;;8.63;79.06
74403;BME280;62837;51.082;13.744;2024-02-28T02:50:55;100537.81;;;8.65;79.16
74403;BME280;62837;51.082;13.744;2024-02-28T02:53:26;100536.48;;;8.67;78.86
74403;BME280;62837;51.082;13.744;2024-02-28T02:55:57;100532.45;;;8.69;78.74
74403;BME280;62837;51.082;13.744;2024-02-28T02:58:28;100536.88;;;8.65;78.30
74403;BME280;62837;51.082;13.744;2024-02-28T03:00:59;100538.44;;;8.63;78.89
74403;BME280;62837;51.082;13.744;2024-02-28T03:03:30;100539.15;;;8.53;77.76
74403;BME280;62837;51.082;13.744;2024-02-28T03:06:01;100544.70;;;8.44;78.25
74403;BME280;62837;51.082;13.744;2024-02-28T03:08:31;100546.67;;;8.41;78.57
74403;BME280;62837;51.082;13.744;2024-02-28T03:11:02;100550.25;;;8.42;78.34
74403;BME280;62837;51.082;13.744;2024-02-28T03:13:34;100551.49;;;8.44;78.72
74403;BME280;62837;51.082;13.744;2024-02-28T03:16:06;100555.43;;;8.40;77.71
74403;BME280;62837;51.082;13.744;2024-02-28T03:18:37;100558.38;;;8.31;77.76
74403;BME280;62837;51.082;13.744;2024-02-28T03:21:08;100564.07;;;8.16;78.04
74403;BME280;62837;51.082;13.744;2024-02-28T03:23:38;100569.48;;;8.11;78.41
74403;BME280;62837;51.082;13.744;2024-02-28T03:26:09;100571.18;;;8.07;78.23
74403;BME280;62837;51.082;13.744;2024-02-28T03:28:40;100571.62;;;8.00;78.66
74403;BME280;62837;51.082;13.744;2024-02-28T03:31:10;100577.07;;;7.99;78.65
74403;BME280;62837;51.082;13.744;2024-02-28T03:33:41;100578.43;;;7.92;78.75
74403;BME280;62837;51.082;13.744;2024-02-28T03:36:12;100579.73;;;7.96;79.57
74403;BME280;62837;51.082;13.744;2024-02-28T03:38:43;100582.40;;;7.98;78.45
74403;BME280;62837;51.082;13.744;2024-02-28T03:41:13;100587.22;;;7.95;78.85
74403;BME280;62837;51.082;13.744;2024-02-28T03:43:44;100589.58;;;7.95;79.31
74403;BME280;62837;51.082;13.744;2024-02-28T03:46:15;100588.90;;;8.01;79.23
74403;BME280;62837;51.082;13.744;2024-02-28T03:48:45;100593.30;;;8.08;79.30
74403;BME280;62837;51.082;13.744;2024-02-28T03:51:16;100598.80;;;8.13;79.11
74403;BME280;62837;51.082;13.744;2024-02-28T03:53:47;100608.08;;;8.06;78.02
74403;BME280;62837;51.082;13.744;2024-02-28T03:56:24;100606.77;;;8.02;79.12
74403;BME280;62837;51.082;13.744;2024-02-28T03:58:55;100608.58;;;8.06;79.10
74403;BME280;62837;51.082;13.744;2024-02-28T04:01:26;100610.09;;;8.08;79.03
74403;BME280;62837;51.082;13.744;2024-02-28T04:03:57;100613.95;;;8.12;78.86
74403;BME280;62837;51.082;13.744;2024-02-28T04:06:28;100618.88;;;8.15;78.95
74403;BME280;62837;51.082;13.744;2024-02-28T04:08:58;100624.29;;;8.19;78.92
74403;BME280;62837;51.082;13.744;2024-02-28T04:11:29;100628.70;;;8.22;78.67
74403;BME280;62837;51.082;13.744;2024-02-28T04:14:00;100632.59;;;8.26;78.45
74403;BME280;62837;51.082;13.744;2024-02-28T04:16:31;100643.30;;;8.30;78.20
74403;BME280;62837;51.082;13.744;2024-02-28T04:19:01;100652.74;;;8.31;78.26
74403;BME280;62837;51.082;13.744;2024-02-28T04:21:32;100662.05;;;8.29;77.87
74403;BME280;62837;51.082;13.744;2024-02-28T04:24:03;100662.92;;;8.25;77.86
74403;BME280;62837;51.082;13.744;2024-02-28T04:26:34;100663.39;;;8.21;77.71
74403;BME280;62837;51.082;13.744;2024-02-28T04:29:06;100663.27;;;8.20;78.09
74403;BME280;62837;51.082;13.744;2024-02-28T04:31:43;100668.23;;;8.18;78.07
74403;BME280;62837;51.082;13.744;2024-02-28T04:34:13;100666.39;;;8.14;77.29
74403;BME280;62837;51.082;13.744;2024-02-28T04:36:44;100670.10;;;8.09;77.47
74403;BME280;62837;51.082;13.744;2024-02-28T04:39:15;100671.68;;;8.05;77.76
74403;BME280;62837;51.082;13.744;2024-02-28T04:41:46;100670.67;;;8.02;77.27
74403;BME280;62837;51.082;13.744;2024-02-28T04:44:16;100672.81;;;7.97;78.24
74403;BME280;62837;51.082;13.744;2024-02-28T04:46:47;100678.11;;;8.01;78.47
74403;BME280;62837;51.082;13.744;2024-02-28T04:49:18;100675.80;;;8.07;78.77
74403;BME280;62837;51.082;13.744;2024-02-28T04:51:49;100682.41;;;8.13;77.76
74403;BME280;62837;51.082;13.744;2024-02-28T04:54:20;100681.39;;;8.09;78.13
74403;BME280;62837;51.082;13.744;2024-02-28T04:56:51;100687.84;;;8.13;78.04
74403;BME280;62837;51.082;13.744;2024-02-28T04:59:21;100689.32;;;8.13;77.46
74403;BME280;62837;51.082;13.744;2024-02-28T05:01:52;100685.53;;;8.02;76.81
74403;BME280;62837;51.082;13.744;2024-02-28T05:04:23;100688.42;;;7.79;76.64
74403;BME280;62837;51.082;13.744;2024-02-28T05:06:54;100686.63;;;7.55;77.45
74403;BME280;62837;51.082;13.744;2024-02-28T05:09:24;100689.55;;;7.32;77.83
74403;BME280;62837;51.082;13.744;2024-02-28T05:11:55;100693.16;;;7.09;78.25
74403;BME280;62837;51.082;13.744;2024-02-28T05:14:26;100694.66;;;6.93;79.04
74403;BME280;62837;51.082;13.744;2024-02-28T05:16:57;100696.61;;;6.84;79.42
74403;BME280;62837;51.082;13.744;2024-02-28T05:19:27;100697.07;;;6.81;80.24
74403;BME280;62837;51.082;13.744;2024-02-28T05:21:58;100696.66;;;6.87;80.18
74403;BME280;62837;51.082;13.744;2024-02-28T05:24:30;100700.25;;;6.90;80.20
74403;BME280;62837;51.082;13.744;2024-02-28T05:27:01;100699.51;;;6.97;80.84
74403;BME280;62837;51.082;13.744;2024-02-28T05:29:31;100702.56;;;7.09;80.28
74403;BME280;62837;51.082;13.744;2024-02-28T05:32:02;100700.97;;;7.15;80.17
74403;BME280;62837;51.082;13.744;2024-02-28T05:34:33;100700.52;;;7.10;79.62
74403;BME280;62837;51.082;13.744;2024-02-28T05:37:04;100705.63;;;7.06;80.30
74403;BME280;62837;51.082;13.744;2024-02-28T05:39:35;100704.09;;;7.07;80.29
74403;BME280;62837;51.082;13.744;2024-02-28T05:42:06;100709.52;;;7.15;80.33
74403;BME280;62837;51.082;13.744;2024-02-28T05:44:37;100715.55;;;7.18;79.78
74403;BME280;62837;51.082;13.744;2024-02-28T05:47:08;100720.51;;;7.20;80.01
74403;BME280;62837;51.082;13.744;2024-02-28T05:49:38;100724.80;;;7.31;80.71
74403;BME280;62837;51.082;13.744;2024-02-28T05:52:09;100725.83;;;7.39;79.53
74403;BME280;62837;51.082;13.744;2024-02-28T05:54:41;100726.63;;;7.37;80.02
74403;BME280;62837;51.082;13.744;2024-02-28T05:57:12;100729.95;;;7.39;79.55
74403;BME280;62837;51.082;13.744;2024-02-28T05:59:43;100735.33;;;7.43;80.06
74403;BME280;62837;51.082;13.744;2024-02-28T06:02:13;100734.54;;;7.52;79.98
74403;BME280;62837;51.082;13.744;2024-02-28T06:04:44;100739.86;;;7.60;80.35
74403;BME280;62837;51.082;13.744;2024-02-28T06:07:15;100740.11;;;7.67;79.28
74403;BME280;62837;51.082;13.744;2024-02-28T06:09:46;100743.14;;;7.58;79.05
74403;BME280;62837;51.082;13.744;2024-02-28T06:12:16;100742.73;;;7.53;79.09
74403;BME280;62837;51.082;13.744;2024-02-28T06:14:47;100746.63;;;7.44;78.93
74403;BME280;62837;51.082;13.744;2024-02-28T06:17:18;100751.20;;;7.45;79.83
74403;BME280;62837;51.082;13.744;2024-02-28T06:19:50;100755.51;;;7.52;79.30
74403;BME280;62837;51.082;13.744;2024-02-28T06:22:21;100755.70;;;7.44;78.53
74403;BME280;62837;51.082;13.744;2024-02-28T06:24:51;100755.55;;;7.29;79.02
74403;BME280;62837;51.082;13.744;2024-02-28T06:27:22;100761.30;;;7.18;78.89
74403;BME280;62837;51.082;13.744;2024-02-28T06:29:53;100766.18;;;7.14;78.58
74403;BME280;62837;51.082;13.744;2024-02-28T06:32:25;100767.00;;;6.97;78.21
74403;BME280;62837;51.082;13.744;2024-02-28T06:34:56;100766.76;;;6.79;79.14
74403;BME280;62837;51.082;13.744;2024-02-28T06:37:27;100772.00;;;6.81;80.18
74403;BME280;62837;51.082;13.744;2024-02-28T06:39:58;100768.14;;;6.92;80.45
74403;BME280;62837;51.082;13.744;2024-02-28T06:42:29;100774.92;;;7.04;79.75
74403;BME280;62837;51.082;13.744;2024-02-28T06:44:59;100779.33;;;7.12;80.04
74403;BME280;62837;51.082;13.744;2024-02-28T06:47:30;100784.16;;;7.25;80.32
74403;BME280;62837;51.082;13.744;2024-02-28T06:50:02;100787.92;;;7.38;80.58
74403;BME280;62837;51.082;13.744;2024-02-28T06:52:33;100786.41;;;7.52;80.73
74403;BME280;62837;51.082;13.744;2024-02-28T06:55:05;100782.25;;;7.55;80.32
74403;BME280;62837;51.082;13.744;2024-02-28T06:57:40;100784.20;;;7.66;80.92
74403;BME280;62837;51.082;13.744;2024-02-28T07:00:12;100785.09;;;7.94;81.47
74403;BME280;62837;51.082;13.744;2024-02-28T07:02:44;100785.17;;;8.29;80.21
74403;BME280;62837;51.082;13.744;2024-02-28T07:05:15;100791.44;;;8.63;77.95
74403;BME280;62837;51.082;13.744;2024-02-28T07:07:46;100796.77;;;8.54;75.99
74403;BME280;62837;51.082;13.744;2024-02-28T07:10:17;100794.64;;;8.34;75.67
74403;BME280;62837;51.082;13.744;2024-02-28T07:12:47;100798.61;;;8.11;75.50
74403;BME280;62837;51.082;13.744;2024-02-28T07:15:18;100797.30;;;7.88;75.73
74403;BME280;62837;51.082;13.744;2024-02-28T07:17:50;100798.36;;;7.69;75.69
74403;BME280;62837;51.082;13.744;2024-02-28T07:20:21;100798.09;;;7.47;76.23
74403;BME280;62837;51.082;13.744;2024-02-28T07:22:52;100795.79;;;7.19;76.71
74403;BME280;62837;51.082;13.744;2024-02-28T07:25:22;100795.80;;;6.95;77.09
74403;BME280;62837;51.082;13.744;2024-02-28T07:27:53;100796.94;;;6.81;77.77
74403;BME280;62837;51.082;13.744;2024-02-28T07:30:24;100797.20;;;6.67;78.10
74403;BME280;62837;51.082;13.744;2024-02-28T07:32:55;100793.09;;;6.59;78.64
74403;BME280;62837;51.082;13.744;2024-02-28T07:35:26;100801.88;;;6.55;78.96
74403;BME280;62837;51.082;13.744;2024-02-28T07:37:56;100810.61;;;6.50;79.35
74403;BME280;62837;51.082;13.744;2024-02-28T07:40:27;100815.88;;;6.47;79.64
74403;BME280;62837;51.082;13.744;2024-02-28T07:42:57;100817.88;;;6.45;79.48
74403;BME280;62837;51.082;13.744;2024-02-28T07:45:28;100813.52;;;6.44;79.75
74403;BME280;62837;51.082;13.744;2024-02-28T07:47:59;100818.42;;;6.45;79.80
74403;BME280;62837;51.082;13.744;2024-02-28T07:50:30;100823.17;;;6.46;79.72
74403;BME280;62837;51.082;13.744;2024-02-28T07:53:01;100824.86;;;6.44;79.75
74403;BME280;62837;51.082;13.744;2024-02-28T07:55:31;100829.48;;;6.44;79.87
74403;BME280;62837;51.082;13.744;2024-02-28T07:58:02;100832.46;;;6.45;79.92
74403;BME280;62837;51.082;13.744;2024-02-28T08:00:35;100837.54;;;6.45;80.04
74403;BME280;62837;51.082;13.744;2024-02-28T08:03:06;100838.60;;;6.45;79.98
74403;BME280;62837;51.082;13.744;2024-02-28T08:05:37;100841.04;;;6.45;79.95
74403;BME280;62837;51.082;13.744;2024-02-28T08:08:09;100844.58;;;6.43;79.77
74403;BME280;62837;51.082;13.744;2024-02-28T08:10:39;100844.44;;;6.39;80.03
74403;BME280;62837;51.082;13.744;2024-02-28T08:13:10;100850.58;;;6.32;80.08
74403;BME280;62837;51.082;13.744;2024-02-28T08:15:41;100854.98;;;6.27;80.19
74403;BME280;62837;51.082;13.744;2024-02-28T08:18:12;100857.91;;;6.23;80.56
74403;BME280;62837;51.082;13.744;2024-02-28T08:20:43;100852.80;;;6.22;80.59
74403;BME280;62837;51.082;13.744;2024-02-28T08:23:13;100849.98;;;6.21;80.52
74403;BME280;62837;51.082;13.744;2024-02-28T08:25:44;100853.83;;;6.23;80.70
74403;BME280;62837;51.082;13.744;2024-02-28T08:28:15;100855.58;;;6.25;80.62
74403;BME280;62837;51.082;13.744;2024-02-28T08:30:46;100862.14;;;6.26;80.61
74403;BME280;62837;51.082;13.744;2024-02-28T08:33:17;100861.66;;;6.27;80.70
74403;BME280;62837;51.082;13.744;2024-02-28T08:35:51;100865.34;;;6.28;80.70
74403;BME280;62837;51.082;13.744;2024-02-28T08:38:23;100868.45;;;6.28;80.75
74403;BME280;62837;51.082;13.744;2024-02-28T08:40:54;100869.33;;;6.26;80.82
74403;BME280;62837;51.082;13.744;2024-02-28T08:43:24;100867.02;;;6.23;80.90
74403;BME280;62837;51.082;13.744;2024-02-28T08:45:55;100869.18;;;6.22;80.97
74403;BME280;62837;51.082;13.744;2024-02-28T08:48:26;100871.99;;;6.21;81.24
74403;BME280;62837;51.082;13.744;2024-02-28T08:50:57;100873.55;;;6.24;81.15
74403;BME280;62837;51.082;13.744;2024-02-28T08:53:27;100871.42;;;6.25;81.28
74403;BME280;62837;51.082;13.744;2024-02-28T08:55:58;100876.70;;;6.27;81.31
74403;BME280;62837;51.082;13.744;2024-02-28T08:58:29;100878.63;;;6.27;81.35
74403;BME280;62837;51.082;13.744;2024-02-28T09:00:59;100877.17;;;6.27;81.40
74403;BME280;62837;51.082;13.744;2024-02-28T09:03:31;100877.88;;;6.27;81.56
74403;BME280;62837;51.082;13.744;2024-02-28T09:06:01;100880.12;;;6.25;81.65
74403;BME280;62837;51.082;13.744;2024-02-28T09:08:32;100879.95;;;6.25;81.75
74403;BME280;62837;51.082;13.744;2024-02-28T09:11:03;100880.48;;;6.26;81.77
74403;BME280;62837;51.082;13.744;2024-02-28T09:13:35;100883.53;;;6.29;81.56
74403;BME280;62837;51.082;13.744;2024-02-28T09:16:06;100884.29;;;6.29;81.44
74403;BME280;62837;51.082;13.744;2024-02-28T09:18:37;100887.02;;;6.30;81.62
74403;BME280;62837;51.082;13.744;2024-02-28T09:21:09;100888.96;;;6.33;81.58
74403;BME280;62837;51.082;13.744;2024-02-28T09:23:39;100886.14;;;6.32;81.32
74403;BME280;62837;51.082;13.744;2024-02-28T09:26:10;100882.27;;;6.29;81.05
74403;BME280;62837;51.082;13.744;2024-02-28T09:28:41;100884.46;;;6.28;81.10
74403;BME280;62837;51.082;13.744;2024-02-28T09:31:11;100886.98;;;6.22;80.90
74403;BME280;62837;51.082;13.744;2024-02-28T09:33:44;100892.10;;;6.17;80.80
74403;BME280;62837;51.082;13.744;2024-02-28T09:36:16;100895.92;;;6.15;80.89
74403;BME280;62837;51.082;13.744;2024-02-28T09:38:46;100898.19;;;6.16;80.81
74403;BME280;62837;51.082;13.744;2024-02-28T09:41:17;100901.71;;;6.14;80.69
74403;BME280;62837;51.082;13.744;2024-02-28T09:43:48;100911.06;;;6.11;80.63
74403;BME280;62837;51.082;13.744;2024-02-28T09:46:19;100916.91;;;6.11;80.56
74403;BME280;62837;51.082;13.744;2024-02-28T09:48:50;100920.69;;;6.12;80.23
74403;BME280;62837;51.082;13.744;2024-02-28T09:51:23;100920.89;;;6.11;79.74
74403;BME280;62837;51.082;13.744;2024-02-28T09:53:54;100927.71;;;6.12;79.63
74403;BME280;62837;51.082;13.744;2024-02-28T09:56:26;100931.50;;;6.15;79.58
74403;BME280;62837;51.082;13.744;2024-02-28T09:58:58;100934.63;;;6.20;79.53
74403;BME280;62837;51.082;13.744;2024-02-28T10:01:29;100933.50;;;6.21;79.08
74403;BME280;62837;51.082;13.744;2024-02-28T10:04:02;100933.32;;;6.21;79.15
74403;BME280;62837;51.082;13.744;2024-02-28T10:06:33;100934.23;;;6.24;78.98
74403;BME280;62837;51.082;13.744;2024-02-28T10:09:04;100937.88;;;6.23;79.11
74403;BME280;62837;51.082;13.744;2024-02-28T10:11:35;100940.95;;;6.24;78.98
74403;BME280;62837;51.082;13.744;2024-02-28T10:14:06;100938.80;;;6.25;78.71
74403;BME280;62837;51.082;13.744;2024-02-28T10:16:37;100938.36;;;6.22;78.45
74403;BME280;62837;51.082;13.744;2024-02-28T10:19:08;100945.35;;;6.16;78.92
74403;BME280;62837;51.082;13.744;2024-02-28T10:21:38;100953.98;;;6.12;78.93
74403;BME280;62837;51.082;13.744;2024-02-28T10:24:09;100959.11;;;6.10;79.25
74403;BME280;62837;51.082;13.744;2024-02-28T10:26:46;100959.33;;;6.11;79.08
74403;BME280;62837;51.082;13.744;2024-02-28T10:29:25;100962.69;;;6.12;78.94
74403;BME280;62837;51.082;13.744;2024-02-28T10:31:57;100961.48;;;6.12;79.00
74403;BME280;62837;51.082;13.744;2024-02-28T10:34:28;100971.27;;;6.12;78.91
74403;BME280;62837;51.082;13.744;2024-02-28T10:36:59;100977.00;;;6.10;78.88
74403;BME280;62837;51.082;13.744;2024-02-28T10:39:31;100981.42;;;6.11;79.01
74403;BME280;62837;51.082;13.744;2024-02-28T10:42:03;100981.90;;;6.13;78.93
74403;BME280;62837;51.082;13.744;2024-02-28T10:44:36;100979.76;;;6.17;78.80
74403;BME280;62837;51.082;13.744;2024-02-28T10:47:09;100985.54;;;6.20;78.82
74403;BME280;62837;51.082;13.744;2024-02-28T10:49:43;100989.08;;;6.22;78.67
74403;BME280;62837;51.082;13.744;2024-02-28T10:52:16;100995.29;;;6.22;78.81
74403;BME280;62837;51.082;13.744;2024-02-28T10:54:55;100994.89;;;6.26;78.94
74403;BME280;62837;51.082;13.744;2024-02-28T10:57:26;100997.99;;;6.27;78.49
74403;BME280;62837;51.082;13.744;2024-02-28T10:59:58;100994.70;;;6.20;78.33
74403;BME280;62837;51.082;13.744;2024-02-28T11:02:30;100988.81;;;6.08;78.42
74403;BME280;62837;51.082;13.744;2024-02-28T11:05:02;100987.77;;;6.04;78.69
74403;BME280;62837;51.082;13.744;2024-02-28T11:07:33;100990.17;;;6.03;78.50
74403;BME280;62837;51.082;13.744;2024-02-28T11:10:08;100987.44;;;6.05;78.55
74403;BME280;62837;51.082;13.744;2024-02-28T11:12:40;100984.23;;;6.09;78.33
74403;BME280;62837;51.082;13.744;2024-02-28T11:15:17;100988.68;;;6.12;78.15
74403;BME280;62837;51.082;13.744;2024-02-28T11:17:48;100991.14;;;6.14;77.80
74403;BME280;62837;51.082;13.744;2024-02-28T11:20:20;100995.72;;;6.14;77.85
74403;BME280;62837;51.082;13.744;2024-02-28T11:23:01;100997.92;;;6.11;77.77
74403;BME280;62837;51.082;13.744;2024-02-28T11:25:31;101000.76;;;6.06;78.02
74403;BME280;62837;51.082;13.744;2024-02-28T11:28:03;100997.48;;;6.05;78.88
74403;BME280;62837;51.082;13.744;2024-02-28T11:30:34;100995.45;;;6.09;78.51
74403;BME280;62837;51.082;13.744;2024-02-28T11:33:05;100993.95;;;6.10;78.28
74403;BME280;62837;51.082;13.744;2024-02-28T11:35:38;100993.30;;;6.13;78.01
74403;BME280;62837;51.082;13.744;2024-02-28T11:38:09;100996.58;;;6.17;77.87
74403;BME280;62837;51.082;13.744;2024-02-28T11:40:49;100995.70;;;6.23;77.72
74403;BME280;62837;51.082;13.744;2024-02-28T11:43:20;100998.63;;;6.25;77.61
74403;BME280;62837;51.082;13.744;2024-02-28T11:45:51;100997.27;;;6.28;77.27
74403;BME280;62837;51.082;13.744;2024-02-28T11:48:25;101003.98;;;6.31;77.25
74403;BME280;62837;51.082;13.744;2024-02-28T11:50:57;101007.10;;;6.32;76.95
74403;BME280;62837;51.082;13.744;2024-02-28T11:53:28;101008.05;;;6.33;76.75
74403;BME280;62837;51.082;13.744;2024-02-28T11:55:59;101003.90;;;6.30;76.08
74403;BME280;62837;51.082;13.744;2024-02-28T11:58:30;101002.08;;;6.23;76.00
74403;BME280;62837;51.082;13.744;2024-02-28T12:01:00;101005.13;;;6.17;76.01
74403;BME280;62837;51.082;13.744;2024-02-28T12:03:32;101005.17;;;6.14;76.10
74403;BME280;62837;51.082;13.744;2024-02-28T12:06:03;101004.95;;;6.12;76.42
74403;BME280;62837;51.082;13.744;2024-02-28T12:08:34;101007.79;;;6.12;76.50
74403;BME280;62837;51.082;13.744;2024-02-28T12:11:09;101007.11;;;6.14;76.54
74403;BME280;62837;51.082;13.744;2024-02-28T12:13:40;101003.78;;;6.19;76.48
74403;BME280;62837;51.082;13.744;2024-02-28T12:16:11;101002.28;;;6.24;76.15
74403;BME280;62837;51.082;13.744;2024-02-28T12:18:42;101000.61;;;6.27;75.88
74403;BME280;62837;51.082;13.744;2024-02-28T12:21:13;101002.16;;;6.26;75.58
74403;BME280;62837;51.082;13.744;2024-02-28T12:23:44;101002.16;;;6.26;75.49
74403;BME280;62837;51.082;13.744;2024-02-28T12:26:16;101004.23;;;6.29;75.68
74403;BME280;62837;51.082;13.744;2024-02-28T12:28:47;101005.60;;;6.34;75.85
74403;BME280;62837;51.082;13.744;2024-02-28T12:31:18;101006.62;;;6.37;75.60
74403;BME280;62837;51.082;13.744;2024-02-28T12:33:51;101004.95;;;6.38;75.44
74403;BME280;62837;51.082;13.744;2024-02-28T12:36:22;101001.85;;;6.38;75.46
74403;BME280;62837;51.082;13.744;2024-02-28T12:38:53;101007.15;;;6.44;75.49
74403;BME280;62837;51.082;13.744;2024-02-28T12:41:24;101006.26;;;6.48;75.06
74403;BME280;62837;51.082;13.744;2024-02-28T12:43:55;101010.59;;;6.48;74.61
74403;BME280;62837;51.082;13.744;2024-02-28T12:46:26;101010.33;;;6.49;74.61
74403;BME280;62837;51.082;13.744;2024-02-28T12:48:57;101005.83;;;6.50;74.68
74403;BME280;62837;51.082;13.744;2024-02-28T12:51:40;101000.66;;;6.52;74.22
74403;BME280;62837;51.082;13.744;2024-02-28T12:54:11;101000.47;;;6.53;74.17
74403;BME280;62837;51.082;13.744;2024-02-28T12:56:43;100996.52;;;6.53;73.89
74403;BME280;62837;51.082;13.744;2024-02-28T12:59:15;100998.80;;;6.52;73.61
74403;BME280;62837;51.082;13.744;2024-02-28T13:01:46;100993.04;;;6.53;73.99
74403;BME280;62837;51.082;13.744;2024-02-28T13:04:18;100993.52;;;6.52;73.80
74403;BME280;62837;51.082;13.744;2024-02-28T13:06:48;100999.55;;;6.55;73.67
74403;BME280;62837;51.082;13.744;2024-02-28T13:09:19;101000.24;;;6.59;73.74
74403;BME280;62837;51.082;13.744;2024-02-28T13:11:52;101000.42;;;6.64;73.73